WA1ENO Weather Reports


Display with metric or nautical units.
time (UTC)temp
F
wind
direction
speed
MPH
gust
MPH
rain 1hr
in
rain 24hr
in
rain mn
in
humidity
%
barometer
mb
20240723175005 76 141 3.0 8.0 0.00 0.03 0.03 92 1016.5
20240723174504 76 131 2.0 9.0 0.00 0.03 0.03 93 1016.5
20240723173504 75 108 5.0 7.0 0.00 0.03 0.03 87 1016.5
20240723173005 76 189 3.0 6.0 0.00 0.03 0.03 91 1016.3
20240723172504 76 203 3.0 6.0 0.00 0.03 0.03 93 1016.3
20240723171504 75 204 3.0 5.0 0.00 0.03 0.03 97 1016.5
20240723171005 74 59 0.0 0.0 0.00 0.03 0.03 95 1016.5
20240723170505 74 59 0.0 3.0 0.00 0.03 0.03 96 1016.5
20240723170004 74 141 2.0 6.0 0.00 0.03 0.03 97 1016.7
20240723165505 73 157 3.0 9.0 0.00 0.03 0.03 97 1016.6
20240723165004 73 136 5.0 7.0 0.00 0.03 0.03 96 1016.6
20240723164505 73 131 5.0 7.0 0.00 0.03 0.03 96 1016.7
20240723163505 74 96 2.0 6.0 0.00 0.03 0.03 98 1016.6
20240723163005 73 216 2.0 3.0 0.00 0.03 0.03 98 1016.6
20240723162504 73 168 1.0 5.0 0.00 0.03 0.03 100 1016.6
20240723162004 73 160 3.0 6.0 0.00 0.03 0.03 100 1016.7
20240723161006 72 77 2.0 6.0 0.00 0.03 0.03 100 1016.7
20240723160505 73 206 2.0 5.0 0.00 0.03 0.03 100 1016.6
20240723154005 72 84 4.0 6.0 0.00 0.03 0.03 99 1016.4
20240723153505 73 171 2.0 5.0 0.00 0.03 0.03 100 1016.4
20240723153005 72 199 3.0 6.0 0.00 0.03 0.03 100 1016.3
20240723152504 72 143 3.0 5.0 0.00 0.03 0.03 100 1016.4
20240723152006 72 180 2.0 5.0 0.00 0.03 0.03 100 1016.3
20240723151505 71 148 3.0 7.0 0.00 0.03 0.03 100 1016.4
20240723151004 71 176 3.0 6.0 0.00 0.03 0.03 100 1016.4
20240723150504 71 75 3.0 6.0 0.00 0.03 0.03 100 1016.4
20240723150005 71 76 3.0 7.0 0.00 0.03 0.03 100 1016.3
20240723145504 71 55 0.0 2.0 0.00 0.03 0.03 100 1016.4
20240723145005 71 188 2.0 3.0 0.00 0.03 0.03 100 1016.4
20240723144504 70 101 3.0 7.0 0.00 0.03 0.03 100 1016.4
20240723143504 71 104 1.0 3.0 0.00 0.03 0.03 100 1016.2
20240723143005 71 125 2.0 3.0 0.01 0.03 0.03 100 1016.2
20240723142505 71 298 2.0 3.0 0.01 0.03 0.03 100 1016.1
20240723142005 72 102 0.0 2.0 0.01 0.03 0.03 100 1016.1
20240723141505 71 106 1.0 2.0 0.01 0.03 0.03 100 1016.1
20240723141004 71 171 0.0 1.0 0.01 0.03 0.03 100 1016.1
20240723140505 71 255 0.0 2.0 0.01 0.03 0.03 100 1016.1
20240723140004 71 190 1.0 3.0 0.01 0.03 0.03 100 1016.1
20240723135504 71 181 1.0 2.0 0.01 0.03 0.03 100 1016.1
20240723135005 70 199 1.0 3.0 0.01 0.03 0.03 100 1016.1
20240723134504 70 153 1.0 2.0 0.01 0.03 0.03 100 1016.1
20240723134005 70 185 1.0 2.0 0.01 0.03 0.03 100 1016.1
20240723133505 70 216 1.0 2.0 0.01 0.03 0.03 100 1016.1
20240723133005 70 212 0.0 0.0 0.00 0.02 0.02 100 1016.0
20240723132505 70 212 0.0 0.0 0.00 0.02 0.02 100 1016.0
20240723132004 70 212 0.0 0.0 0.00 0.02 0.02 100 1015.9
20240723131505 70 212 0.0 0.0 0.00 0.02 0.02 100 1015.9
20240723131005 69 212 0.0 0.0 0.00 0.02 0.02 100 1015.8
20240723130504 69 212 0.0 2.0 0.00 0.02 0.02 100 1015.8
20240723125505 69 197 1.0 2.0 0.00 0.02 0.02 100 1015.8
20240723125005 69 201 2.0 5.0 0.00 0.02 0.02 100 1015.8
20240723124505 69 195 3.0 5.0 0.00 0.02 0.02 100 1015.8
20240723124005 69 234 0.0 0.0 0.00 0.02 0.02 100 1015.7
20240723123005 69 234 0.0 0.0 0.00 0.02 0.02 100 1015.7
20240723122504 70 234 0.0 2.0 0.01 0.02 0.02 100 1015.7
20240723122005 69 158 2.0 3.0 0.01 0.02 0.02 100 1015.7
20240723121504 70 185 2.0 5.0 0.01 0.02 0.02 100 1015.7
20240723120504 70 190 2.0 5.0 0.01 0.02 0.02 100 1015.7
20240723120005 70 155 2.0 5.0 0.01 0.02 0.02 100 1015.6
20240723115505 70 163 3.0 5.0 0.01 0.02 0.02 100 1015.7
20240723114504 70 148 3.0 5.0 0.01 0.02 0.02 100 1015.8
20240723114005 70 164 3.0 6.0 0.01 0.02 0.02 100 1015.8
20240723113504 70 161 4.0 7.0 0.01 0.02 0.02 100 1015.7
20240723113005 70 101 2.0 6.0 0.01 0.02 0.02 100 1015.7
20240723112504 71 142 2.0 6.0 0.00 0.01 0.01 100 1015.7
20240723112005 71 104 3.0 6.0 0.00 0.01 0.01 100 1015.7
20240723111504 71 135 0.0 5.0 0.00 0.01 0.01 100 1015.7
20240723111004 71 144 2.0 5.0 0.00 0.01 0.01 100 1015.7
20240723110505 71 178 1.0 2.0 0.01 0.01 0.01 100 1015.7
20240723110004 71 158 1.0 5.0 0.01 0.01 0.01 100 1015.7
20240723105505 71 150 1.0 2.0 0.01 0.01 0.01 100 1015.5
20240723105004 71 49 0.0 0.0 0.01 0.01 0.01 100 1015.5
20240723104505 71 75 1.0 3.0 0.01 0.01 0.01 100 1015.4
20240723103005 71 127 1.0 2.0 0.01 0.01 0.01 100 1015.3
20240723102504 71 164 2.0 5.0 0.01 0.01 0.01 100 1015.2
20240723102004 71 152 2.0 5.0 0.01 0.01 0.01 100 1015.2
20240723101504 71 207 1.0 5.0 0.01 0.01 0.01 100 1015.3
20240723101005 71 190 2.0 3.0 0.01 0.01 0.01 100 1015.2
20240723095504 71 167 1.0 2.0 0.00 0.00 0.00 100 1015.2
20240723095005 71 10 1.0 3.0 0.00 0.00 0.00 100 1015.1
20240723094504 71 169 1.0 3.0 0.00 0.00 0.00 100 1015.1
20240723094005 71 154 1.0 5.0 0.00 0.00 0.00 100 1015.2
20240723093504 71 199 1.0 5.0 0.00 0.00 0.00 100 1015.3
20240723093004 71 188 2.0 6.0 0.00 0.00 0.00 100 1015.1
20240723092504 71 165 3.0 5.0 0.00 0.00 0.00 100 1015.2
20240723092004 72 154 1.0 6.0 0.00 0.00 0.00 100 1015.2
20240723091505 72 171 3.0 6.0 0.00 0.00 0.00 100 1015.1
20240723090005 72 188 3.0 8.0 0.00 0.00 0.00 100 1015.3
20240723085504 72 165 3.0 8.0 0.00 0.00 0.00 100 1015.2
20240723085004 72 169 3.0 6.0 0.00 0.00 0.00 100 1015.3
20240723084505 72 162 2.0 5.0 0.00 0.00 0.00 100 1015.3
20240723084004 72 171 3.0 3.0 0.00 0.00 0.00 100 1015.2
20240723083504 72 173 3.0 5.0 0.00 0.00 0.00 100 1015.1
20240723083004 72 192 3.0 8.0 0.00 0.00 0.00 100 1015.1
20240723082505 72 193 2.0 3.0 0.00 0.00 0.00 100 1015.2
20240723082004 72 167 1.0 2.0 0.00 0.00 0.00 100 1015.2
20240723081005 73 176 0.0 2.0 0.00 0.00 0.00 100 1015.1
20240723080505 73 172 1.0 2.0 0.00 0.00 0.00 100 1015.0
20240723080004 73 140 0.0 5.0 0.00 0.00 0.00 100 1015.0
20240723075504 73 135 1.0 2.0 0.00 0.00 0.00 100 1015.1
20240723075004 73 190 0.0 2.0 0.00 0.00 0.00 100 1015.1
20240723074504 73 191 0.0 0.0 0.00 0.00 0.00 100 1015.1
20240723074004 73 191 1.0 1.0 0.00 0.00 0.00 100 1015.1
20240723073004 73 162 0.0 0.0 0.00 0.00 0.00 100 1015.0
20240723072505 73 194 1.0 1.0 0.00 0.00 0.00 100 1015.1
20240723072004 73 147 0.0 0.0 0.00 0.00 0.00 100 1015.1
20240723071505 73 147 0.0 0.0 0.00 0.00 0.00 100 1015.1
20240723071005 73 147 0.0 0.0 0.00 0.00 0.00 100 1015.1
20240723070505 73 147 0.0 0.0 0.00 0.00 0.00 100 1015.1
20240723070005 73 147 0.0 0.0 0.00 0.00 0.00 100 1015.2
20240723065504 73 147 0.0 1.0 0.00 0.00 0.00 100 1015.2
20240723065004 73 167 2.0 2.0 0.00 0.00 0.00 100 1015.2
20240723064506 73 164 1.0 2.0 0.00 0.00 0.00 100 1015.3
20240723064005 73 174 1.0 2.0 0.00 0.00 0.00 100 1015.4
20240723063505 74 112 0.0 1.0 0.00 0.00 0.00 100 1015.3
20240723063005 74 112 0.0 0.0 0.00 0.00 0.00 100 1015.3
20240723062504 74 112 0.0 1.0 0.00 0.00 0.00 100 1015.3
20240723062005 74 71 1.0 1.0 0.00 0.00 0.00 100 1015.4
20240723061504 74 94 1.0 1.0 0.00 0.00 0.00 100 1015.4
20240723061005 74 106 0.0 1.0 0.00 0.00 0.00 100 1015.5
20240723060504 74 127 0.0 1.0 0.00 0.00 0.00 100 1015.5
20240723060005 74 184 0.0 0.0 0.00 0.00 0.00 100 1015.5
20240723055504 74 184 0.0 0.0 0.00 0.00 0.00 100 1015.5
20240723055005 74 184 0.0 0.0 0.00 0.00 0.00 100 1015.5
20240723054504 74 188 1.0 2.0 0.00 0.00 0.00 100 1015.5
20240723054005 74 176 1.0 3.0 0.00 0.00 0.00 100 1015.6
20240723053005 74 178 1.0 3.0 0.00 0.00 0.00 100 1015.7
20240723052505 74 192 1.0 2.0 0.00 0.00 0.00 100 1015.7
20240723052004 74 150 0.0 2.0 0.00 0.00 0.00 100 1015.8
20240723051005 75 161 1.0 1.0 0.00 0.00 0.00 100 1015.9
20240723050004 75 145 0.0 0.0 0.00 0.00 0.00 100 1016.0
20240723045505 75 145 0.0 1.0 0.00 0.00 0.00 100 1016.1
20240723045005 75 209 1.0 2.0 0.00 0.00 0.00 100 1016.2
20240723044504 75 180 1.0 2.0 0.00 0.00 0.00 100 1016.2
20240723044004 75 193 0.0 3.0 0.00 0.00 0.00 100 1016.2
20240723043504 75 201 2.0 5.0 0.00 0.00 0.00 100 1016.2
20240723043005 75 197 4.0 6.0 0.00 0.00 0.00 100 1016.3
20240723042504 75 196 3.0 6.0 0.00 0.00 0.00 100 1016.4
20240723042004 75 207 2.0 5.0 0.00 0.00 0.00 100 1016.4
20240723041504 75 205 4.0 6.0 0.00 0.00 0.00 100 1016.4
20240723041004 75 204 5.0 7.0 0.00 0.00 0.00 100 1016.5
20240723040505 75 200 4.0 6.0 0.00 0.00 0.00 100 1016.5
20240723040004 75 208 5.0 7.0 0.00 0.00 0.00 100 1016.5
20240723035004 75 215 3.0 5.0 0.00 0.00 0.00 100 1016.5
20240723034505 75 209 3.0 5.0 0.00 0.00 0.00 100 1016.6
20240723034004 75 214 3.0 6.0 0.00 0.00 0.00 100 1016.6
20240723033505 75 206 2.0 6.0 0.00 0.00 0.00 100 1016.6
20240723033004 75 203 4.0 6.0 0.00 0.00 0.00 100 1016.6
20240723032505 75 202 3.0 5.0 0.00 0.00 0.00 100 1016.7
20240723032005 75 206 4.0 6.0 0.00 0.00 0.00 100 1016.7
20240723030504 75 207 3.0 5.0 0.00 0.00 0.00 100 1016.9
20240723030005 75 210 3.0 6.0 0.00 0.00 0.00 100 1016.9
20240723025504 75 205 3.0 5.0 0.00 0.00 0.00 100 1016.9
20240723025005 75 207 3.0 6.0 0.00 0.00 0.00 100 1017.0
20240723024504 75 209 3.0 5.0 0.00 0.00 0.00 100 1017.0
20240723023504 75 206 4.0 6.0 0.00 0.00 0.00 100 1016.9
20240723023005 75 203 3.0 6.0 0.00 0.00 0.00 100 1016.9
20240723022504 75 220 3.0 6.0 0.00 0.00 0.00 100 1016.9
20240723021504 75 207 4.0 6.0 0.00 0.00 0.00 100 1016.9
20240723021005 75 209 3.0 7.0 0.00 0.00 0.00 100 1016.9
20240723020504 75 206 4.0 7.0 0.00 0.00 0.00 100 1016.9
20240723015505 75 199 5.0 8.0 0.00 0.00 0.00 99 1016.9
20240723015004 75 210 4.0 7.0 0.00 0.00 0.00 99 1016.9
20240723014505 76 205 4.0 8.0 0.00 0.00 0.00 98 1016.9
20240723014004 76 200 5.0 7.0 0.00 0.00 0.00 98 1016.9
20240723013504 76 209 3.0 6.0 0.00 0.00 0.00 97 1016.8
20240723012004 76 205 3.0 7.0 0.00 0.00 0.00 96 1016.7
20240723011505 76 207 5.0 7.0 0.00 0.00 0.00 95 1016.6
20240723011004 76 210 3.0 6.0 0.00 0.00 0.00 94 1016.6
20240723010504 76 207 4.0 6.0 0.00 0.00 0.00 92 1016.5
20240723010004 76 213 4.0 7.0 0.00 0.00 0.00 90 1016.5
20240723005504 76 215 4.0 6.0 0.00 0.00 0.00 85 1016.4
20240723005005 76 210 3.0 6.0 0.00 0.00 0.00 82 1016.4
20240723004504 77 218 3.0 7.0 0.00 0.00 0.00 80 1016.3
20240723004005 77 197 3.0 7.0 0.00 0.00 0.00 77 1016.3
20240723003004 77 203 5.0 9.0 0.00 0.00 0.00 75 1016.1
20240723002505 77 216 4.0 8.0 0.00 0.00 0.00 76 1016.1
20240723002004 77 213 5.0 8.0 0.00 0.00 0.00 74 1016.1
20240723001505 77 219 5.0 8.0 0.00 0.00 0.00 75 1016.0
20240723001004 77 205 4.0 7.0 0.00 0.00 0.00 74 1016.0
20240723000504 77 209 4.0 8.0 0.00 0.00 0.00 73 1016.0
20240723000004 77 206 4.0 8.0 0.00 0.00 0.00 72 1016.0
20240722235504 78 205 5.0 7.0 0.00 0.00 0.00 72 1016.1
20240722235004 78 209 4.0 9.0 0.00 0.00 0.00 74 1016.1
20240722234505 78 204 5.0 10.0 0.00 0.00 0.00 74 1016.0
20240722234004 78 210 3.0 9.0 0.00 0.00 0.00 76 1016.1
20240722233504 78 211 5.0 9.0 0.00 0.00 0.00 76 1016.1
20240722233004 78 223 6.0 9.0 0.00 0.00 0.00 76 1016.1
20240722232505 78 201 5.0 10.0 0.00 0.00 0.00 76 1016.1
20240722232005 78 204 5.0 13.0 0.00 0.00 0.00 76 1016.0
20240722231504 78 217 5.0 10.0 0.00 0.00 0.00 77 1016.1
20240722231005 78 200 7.0 9.0 0.00 0.00 0.00 76 1016.1
20240722230504 79 204 6.0 12.0 0.00 0.00 0.00 78 1016.1
20240722230005 78 211 9.0 14.0 0.00 0.00 0.00 79 1016.1
20240722225504 79 204 6.0 10.0 0.00 0.00 0.00 80 1016.1
20240722225004 79 201 8.0 12.0 0.00 0.00 0.00 81 1016.1
20240722224504 79 199 7.0 13.0 0.00 0.00 0.00 82 1016.0
20240722223004 79 221 5.0 10.0 0.00 0.00 0.00 87 1016.1
20240722222004 79 205 5.0 8.0 0.00 0.00 0.00 83 1016.1
20240722221504 79 216 7.0 12.0 0.00 0.00 0.00 80 1016.1
20240722221004 79 207 5.0 9.0 0.00 0.00 0.00 78 1016.1
20240722220504 79 213 5.0 9.0 0.00 0.00 0.00 77 1016.0
20240722220005 80 208 5.0 7.0 0.00 0.00 0.00 76 1016.1
20240722215504 80 206 6.0 8.0 0.00 0.00 0.00 75 1016.2
20240722215004 80 205 6.0 9.0 0.00 0.00 0.00 74 1016.1
20240722214505 80 206 6.0 9.0 0.00 0.00 0.00 73 1016.1
20240722214005 80 196 3.0 9.0 0.00 0.00 0.00 73 1016.0
20240722213505 80 202 9.0 12.0 0.00 0.00 0.00 70 1016.1
20240722213004 80 205 8.0 14.0 0.00 0.00 0.00 71 1016.1
20240722212505 80 202 7.0 13.0 0.00 0.00 0.00 70 1016.1
20240722212004 80 210 6.0 13.0 0.00 0.00 0.00 70 1016.1
20240722211505 81 236 6.0 14.0 0.00 0.00 0.00 70 1016.1
20240722211004 81 194 9.0 14.0 0.00 0.00 0.00 69 1016.1
20240722210504 81 206 6.0 10.0 0.00 0.00 0.00 69 1016.0
20240722210004 81 204 5.0 12.0 0.00 0.00 0.00 67 1016.0
20240722205505 81 206 7.0 12.0 0.00 0.00 0.00 68 1016.1
20240722204504 82 210 5.0 9.0 0.00 0.00 0.00 65 1016.0
20240722204004 82 203 6.0 12.0 0.00 0.00 0.00 65 1016.1
20240722203504 82 209 7.0 13.0 0.00 0.00 0.00 61 1016.1
20240722203004 82 205 6.0 14.0 0.00 0.00 0.00 62 1016.2
20240722202504 82 208 9.0 16.0 0.00 0.00 0.00 60 1016.2
20240722201505 83 210 6.0 12.0 0.00 0.00 0.00 57 1016.1
20240722200504 83 200 7.0 12.0 0.00 0.00 0.00 56 1016.2
20240722200004 84 212 6.0 14.0 0.00 0.00 0.00 56 1016.2
20240722195506 84 222 7.0 15.0 0.00 0.00 0.00 56 1016.2
20240722195005 84 199 9.0 13.0 0.00 0.00 0.00 55 1016.2
20240722194505 84 245 5.0 12.0 0.00 0.00 0.00 56 1016.2
20240722194004 84 238 9.0 14.0 0.00 0.00 0.00 55 1016.2
20240722193504 84 195 4.0 12.0 0.00 0.00 0.00 56 1016.2
20240722193004 84 224 6.0 13.0 0.00 0.00 0.00 57 1016.2
20240722192504 84 229 6.0 12.0 0.00 0.00 0.00 59 1016.3
20240722191505 83 179 3.0 6.0 0.00 0.00 0.00 66 1016.3
20240722191004 83 247 0.0 3.0 0.00 0.00 0.00 69 1016.3
20240722190504 83 87 2.0 6.0 0.00 0.00 0.00 72 1016.3
20240722190004 82 124 3.0 7.0 0.00 0.00 0.00 72 1016.4
20240722185504 81 89 5.0 7.0 0.00 0.00 0.00 71 1016.5
20240722185005 81 73 2.0 8.0 0.00 0.00 0.00 73 1016.5
20240722184504 81 103 3.0 7.0 0.00 0.00 0.00 73 1016.5
20240722184004 81 69 3.0 6.0 0.00 0.00 0.00 75 1016.6
20240722183504 81 89 2.0 8.0 0.00 0.00 0.00 75 1016.6
20240722183004 81 73 4.0 7.0 0.00 0.00 0.00 76 1016.6
20240722182504 81 74 3.0 6.0 0.00 0.00 0.00 76 1016.7
20240722182004 80 84 5.0 7.0 0.00 0.00 0.00 74 1016.8
20240722181504 80 28 3.0 7.0 0.00 0.00 0.00 75 1016.8
20240722181004 80 26 4.0 7.0 0.00 0.00 0.00 73 1016.7
20240722180504 81 45 4.0 7.0 0.00 0.00 0.00 72 1016.7
20240722175505 82 64 3.0 8.0 0.00 0.00 0.00 70 1016.7